Latest Weather Observations for Tewantin

IDQ60901

Issued at 1:01 pm EST Sunday 24 May 2015 (issued every 10 minutes, with the page automatically refreshed every 10 minutes)

About weather observations | Map of Brisbane area stations | Latest observations for Brisbane area | Other Formats
Station Details ID: 040908 Name: TEWANTIN RSL PARK Lat: -26.39 Lon: 153.04 Height: 6.4 m
Data from the previous 72 hours. | See also: Recent months at Tewantin
Date/Time
EST
Tmp

°C
App
Tmp
°C
Dew
Point
°C
Rel
Hum
%
Delta-T

°C
Wind Press
QNH
hPa
Press
MSL
hPa
Rain
since
9 am
mm
Dir
 
Spd
km/h
Gust
km/h
Spd
kts
Gust
kts
24/01:00pm 21.5 18.5 12.6 57 5.0 SSE 20 32 11 17 1026.4 1026.4 0.0
24/12:30pm 21.9 19.3 13.3 58 4.9 SSE 19 32 10 17 1026.5 1026.5 0.0
24/12:00pm 21.5 19.2 12.9 58 4.9 SSE 17 28 9 15 1026.9 1026.9 0.0
24/11:30am 21.5 19.1 12.6 57 5.0 SSE 17 30 9 16 1027.3 1027.3 0.0
24/11:00am 21.6 19.6 12.7 57 5.0 SSE 15 33 8 18 1027.6 1027.6 0.0
24/10:30am 20.4 17.8 12.1 59 4.6 SSE 17 32 9 17 1027.7 1027.7 0.0
24/10:00am 19.8 17.7 12.3 62 4.2 SSE 15 26 8 14 1028.0 1028.0 0.0
24/09:30am 18.9 16.0 12.4 66 3.6 S 19 26 10 14 1027.9 1027.9 0.0
24/09:00am 18.5 15.3 11.8 65 3.7 S 20 30 11 16 1027.8 1027.8 0.0
24/08:30am 18.6 15.1 12.1 66 3.6 S 22 35 12 19 1027.5 1027.5 0.0
24/08:00am 17.7 14.6 11.7 68 3.3 S 19 28 10 15 1027.2 1027.2 0.0
24/07:30am 17.1 14.5 12.0 72 2.8 S 17 28 9 15 1026.9 1026.9 0.0
24/07:00am 16.2 14.4 12.2 77 2.2 S 13 19 7 10 1026.6 1026.6 0.0
24/06:30am 15.8 14.9 12.7 82 1.7 SSW 9 17 5 9 1026.6 1026.6 0.0
24/06:00am 15.8 15.1 13.1 84 1.5 SSW 9 17 5 9 1026.1 1026.1 0.0
24/05:30am 16.7 14.3 12.7 77 2.2 S 17 24 9 13 1025.6 1025.6 0.0
24/05:00am 16.5 14.0 12.3 76 2.3 S 17 22 9 12 1025.1 1025.1 0.0
24/04:30am 16.2 14.4 12.0 76 2.3 S 13 24 7 13 1025.1 1025.1 0.0
24/04:00am 15.8 13.5 11.8 77 2.2 S 15 20 8 11 1025.1 1025.1 0.0
24/03:30am 15.9 14.0 11.9 77 2.2 S 13 20 7 11 1025.1 1025.1 0.0
24/03:00am 15.8 13.0 11.2 74 2.5 S 17 24 9 13 1024.9 1024.9 0.0
24/02:30am 15.9 13.3 10.7 71 2.8 S 15 20 8 11 1025.1 1025.1 0.0
24/02:00am 16.3 13.6 10.4 68 3.1 S 15 22 8 12 1024.9 1024.9 0.0
24/01:30am 16.5 13.4 10.4 67 3.2 S 17 24 9 13 1024.8 1024.8 0.0
24/01:00am 16.7 14.0 10.5 67 3.3 S 15 24 8 13 1024.9 1024.9 0.0
24/12:30am 16.6 13.6 10.7 68 3.1 S 17 26 9 14 1024.8 1024.8 0.0
24/12:00am 16.6 13.9 10.5 67 3.2 S 15 22 8 12 1024.9 1024.9 0.0
 
Date/Time
EST
Tmp

°C
App
Tmp
°C
Dew
Point
°C
Rel
Hum
%
Delta-T

°C
Wind Press
QNH
hPa
Press
MSL
hPa
Rain
since
9 am
mm
Dir
 
Spd
km/h
Gust
km/h
Spd
kts
Gust
kts
23/11:30pm 16.8 14.1 10.2 65 3.5 S 15 20 8 11 1024.8 1024.8 0.0
23/11:00pm 17.3 14.2 10.2 63 3.7 S 17 26 9 14 1024.7 1024.7 0.0
23/10:30pm 17.3 14.5 10.0 62 3.9 S 15 20 8 11 1024.7 1024.7 0.0
23/10:00pm 17.5 14.6 9.7 60 4.1 S 15 20 8 11 1024.8 1024.8 0.0
23/09:30pm 17.9 15.5 10.0 60 4.2 S 13 22 7 12 1024.7 1024.7 0.0
23/09:00pm 17.8 15.4 10.2 61 4.0 S 13 22 7 12 1024.7 1024.7 0.0
23/08:30pm 18.5 15.3 10.1 58 4.5 S 17 24 9 13 1024.7 1024.7 0.0
23/08:00pm 18.6 15.9 10.4 59 4.4 S 15 22 8 12 1024.7 1024.7 0.0
23/07:30pm 18.7 15.7 10.5 59 4.4 S 17 32 9 17 1024.4 1024.4 0.0
23/07:00pm 19.1 16.3 11.2 60 4.3 S 17 24 9 13 1024.3 1024.3 0.0
23/06:30pm 18.6 15.9 11.7 64 3.8 SSE 17 30 9 16 1024.3 1024.3 0.0
23/06:00pm 18.5 16.2 11.6 64 3.8 S 15 28 8 15 1024.0 1024.0 0.0
23/05:30pm 19.0 16.2 11.3 61 4.2 S 17 30 9 16 1023.6 1023.6 0.0
23/05:00pm 19.4 16.5 10.9 58 4.6 S 17 28 9 15 1023.2 1023.2 0.0
23/04:30pm 19.9 17.0 10.9 56 4.9 S 17 26 9 14 1023.1 1023.1 0.0
23/04:00pm 20.3 17.2 11.5 57 4.8 S 19 33 10 18 1023.0 1023.0 0.0
23/03:30pm 20.7 17.1 10.5 52 5.5 SSE 20 35 11 19 1022.7 1022.7 0.0
23/03:00pm 21.0 17.3 10.2 50 5.8 SSE 20 35 11 19 1022.4 1022.4 0.0
23/02:30pm 21.3 17.4 10.8 51 5.8 SSE 22 44 12 24 1022.3 1022.3 0.0
23/02:00pm 21.2 16.5 10.7 51 5.7 SSE 26 39 14 21 1022.1 1022.1 0.0
23/01:30pm 21.3 17.0 10.8 51 5.8 SSE 24 39 13 21 1021.9 1021.9 0.0
23/01:00pm 21.3 17.1 9.9 48 6.1 SSE 22 37 12 20 1022.1 1022.1 0.0
23/12:30pm 21.2 16.3 10.1 49 6.0 SSE 26 48 14 26 1022.3 1022.3 0.0
23/12:00pm 21.4 17.9 10.9 51 5.8 SSE 20 33 11 18 1022.2 1022.2 0.0
23/11:47am 21.1 16.0 10.6 51 5.7 S 28 46 15 25 1022.5 1022.5 0.0
23/11:30am 21.0 16.6 10.5 51 5.7 SSE 24 41 13 22 1022.7 1022.7 0.0
23/11:00am 20.7 16.3 10.5 52 5.5 SSE 24 39 13 21 1022.8 1022.8 0.0
23/10:47am 20.4 15.3 10.5 53 5.4 S 28 46 15 25 1022.7 1022.7 0.0
23/10:30am 20.2 15.9 10.6 54 5.2 S 24 44 13 24 1022.9 1022.9 0.0
23/10:00am 19.9 15.7 11.1 57 4.8 S 24 43 13 23 1022.5 1022.5 0.0
23/09:30am 19.5 15.3 11.0 58 4.6 S 24 37 13 20 1022.3 1022.3 0.0
23/09:00am 18.9 14.9 10.5 58 4.5 S 22 37 12 20 1022.1 1022.1 0.0
23/08:30am 18.0 14.1 9.6 58 4.4 S 20 33 11 18 1021.7 1021.7 0.0
23/08:00am 17.4 13.5 9.3 59 4.2 S 20 33 11 18 1021.4 1021.4 0.0
23/07:30am 16.7 12.9 9.1 61 3.9 S 19 32 10 17 1021.1 1021.1 0.0
23/07:00am 15.8 13.2 9.5 66 3.3 S 13 20 7 11 1020.9 1020.9 0.0
23/06:30am 15.4 12.8 9.3 67 3.1 SSW 13 20 7 11 1020.4 1020.4 0.0
23/06:00am 15.3 13.1 9.2 67 3.1 SSW 11 19 6 10 1020.1 1020.1 0.0
23/05:30am 15.3 13.1 9.4 68 3.0 SSW 11 20 6 11 1019.8 1019.8 0.0
23/05:00am 15.2 13.4 9.3 68 3.0 SSW 9 17 5 9 1019.5 1019.5 0.0
23/04:30am 15.1 13.3 9.5 69 2.9 SSW 9 17 5 9 1019.5 1019.5 0.0
23/04:00am 14.9 13.3 10.1 73 2.5 SSW 9 15 5 8 1019.2 1019.2 0.0
23/03:30am 13.7 13.3 9.6 76 2.1 W 2 6 1 3 1019.4 1019.4 0.0
23/03:00am 14.0 13.5 9.2 73 2.4 NW 2 7 1 4 1019.3 1019.3 0.0
23/02:30am 14.6 13.8 9.6 72 2.6 SW 4 7 2 4 1019.1 1019.1 0.0
23/02:00am 14.4 13.5 9.4 72 2.6 SW 4 7 2 4 1019.0 1019.0 0.0
23/01:30am 13.6 13.0 8.9 73 2.4 WSW 2 7 1 4 1019.3 1019.3 0.0
23/01:00am 14.6 13.3 9.2 70 2.8 SW 6 11 3 6 1019.4 1019.4 0.0
23/12:30am 14.2 13.1 8.6 69 2.8 SW 4 7 2 4 1019.6 1019.6 0.0
23/12:00am 14.7 13.3 8.9 68 2.9 SW 6 9 3 5 1019.4 1019.4 0.0
 
Date/Time
EST
Tmp

°C
App
Tmp
°C
Dew
Point
°C
Rel
Hum
%
Delta-T

°C
Wind Press
QNH
hPa
Press
MSL
hPa
Rain
since
9 am
mm
Dir
 
Spd
km/h
Gust
km/h
Spd
kts
Gust
kts
22/11:30pm 14.7 13.1 8.6 67 3.1 SW 7 13 4 7 1019.4 1019.4 0.0
22/11:00pm 14.8 12.4 8.5 66 3.2 SW 11 17 6 9 1019.5 1019.5 0.0
22/10:30pm 14.9 13.2 8.4 65 3.3 SW 7 13 4 7 1019.8 1019.8 0.0
22/10:00pm 14.3 12.8 8.3 67 3.0 SW 6 9 3 5 1019.8 1019.8 0.0
22/09:30pm 13.5 11.8 7.7 68 2.9 W 6 11 3 6 1019.5 1019.5 0.0
22/09:00pm 14.7 12.8 7.7 63 3.5 SW 7 15 4 8 1019.6 1019.6 0.0
22/08:30pm 15.0 13.3 7.5 61 3.7 SW 6 11 3 6 1019.3 1019.3 0.0
22/08:00pm 15.2 12.8 7.2 59 3.9 SW 9 17 5 9 1018.9 1018.9 0.0
22/07:30pm 15.3 13.0 7.3 59 4.0 SW 9 17 5 9 1018.7 1018.7 0.0
22/07:00pm 15.0 13.0 7.1 59 3.9 SSW 7 13 4 7 1018.4 1018.4 0.0
22/06:30pm 15.5 12.8 7.3 58 4.1 SW 11 20 6 11 1018.0 1018.0 0.0
22/06:00pm 15.8 12.2 6.8 55 4.4 WSW 15 26 8 14 1017.2 1017.2 0.0
22/05:30pm 16.4 13.2 6.8 53 4.7 SW 13 28 7 15 1017.4 1017.4 0.0
22/05:00pm 17.0 14.6 7.1 52 4.9 WSW 9 19 5 10 1016.9 1016.9 0.0
22/04:30pm 18.2 15.1 7.3 49 5.5 SW 13 28 7 15 1016.5 1016.5 0.0
22/04:00pm 19.0 15.8 6.8 45 6.1 WSW 13 28 7 15 1016.1 1016.1 0.0
22/03:30pm 19.5 17.1 6.9 44 6.4 SW 9 17 5 9 1015.8 1015.8 0.0
22/03:00pm 19.6 16.3 6.3 42 6.6 SW 13 24 7 13 1015.7 1015.7 0.0
22/02:30pm 20.1 16.4 6.1 40 7.0 SW 15 28 8 15 1015.7 1015.7 0.0
22/02:00pm 21.0 17.5 5.4 36 7.7 WSW 13 28 7 15 1015.5 1015.5 0.0
22/01:30pm 21.4 18.9 8.0 42 7.0 SW 11 19 6 10 1015.6 1015.6 0.0
22/01:00pm 20.8 17.7 7.1 41 7.0 WSW 13 26 7 14 1015.9 1015.9 0.0
22/12:30pm 20.8 17.6 6.7 40 7.1 WSW 13 24 7 13 1016.2 1016.2 0.0
22/12:00pm 20.7 18.7 8.7 46 6.3 SW 9 17 5 9 1016.6 1016.6 0.0
22/11:30am 20.3 17.4 8.0 45 6.4 SW 13 20 7 11 1016.9 1016.9 0.0
22/11:00am 19.7 17.1 7.8 46 6.1 W 11 24 6 13 1017.4 1017.4 0.0
22/10:30am 19.9 18.0 9.2 50 5.7 WSW 9 19 5 10 1017.6 1017.6 0.0
22/10:00am 19.2 16.9 9.1 52 5.3 WSW 11 22 6 12 1017.8 1017.8 0.0
22/09:30am 19.1 16.8 9.0 52 5.3 WSW 11 20 6 11 1017.9 1017.9 0.0
22/09:00am 18.9 17.6 11.2 61 4.2 W 9 15 5 8 1017.8 1017.8 4.2
22/08:30am 18.5 18.4 12.0 66 3.6 W 4 9 2 5 1017.9 1017.9 4.2
22/08:00am 17.4 16.8 11.7 69 3.1 N 6 9 3 5 1017.6 1017.6 4.2
22/07:30am 15.6 15.2 12.4 81 1.8 SSE 6 9 3 5 1017.7 1017.7 4.2
22/07:00am 16.5 15.4 13.2 81 1.8 SW 11 22 6 12 1017.2 1017.2 4.2
22/06:30am 17.0 19.3 16.8 99 0.1 CALM 0 0 0 0 1016.7 1016.7 4.2
22/06:00am 16.9 19.2 16.7 99 0.1 CALM 0 0 0 0 1016.5 1016.5 4.2
22/05:30am 16.9 18.4 16.7 99 0.1 NW 4 7 2 4 1016.1 1016.1 4.2
22/05:00am 17.0 18.6 16.8 99 0.1 W 4 7 2 4 1015.8 1015.8 4.0
22/04:30am 17.0 19.3 16.8 99 0.1 CALM 0 6 0 3 1015.5 1015.5 4.0
22/04:00am 17.1 19.5 16.9 99 0.1 CALM 0 7 0 4 1015.7 1015.7 4.0
22/03:30am 17.1 19.5 16.9 99 0.1 CALM 0 0 0 0 1016.3 1016.3 4.0
22/03:00am 17.1 18.7 16.9 99 0.1 W 4 7 2 4 1016.4 1016.4 3.4
22/02:30am 17.1 19.1 16.9 99 0.1 WNW 2 6 1 3 1016.4 1016.4 3.0
22/02:00am 17.2 19.5 16.7 97 0.3 CALM 0 6 0 3 1016.5 1016.5 2.6
22/01:30am 17.4 19.4 16.9 97 0.3 W 2 7 1 4 1016.9 1016.9 1.4
22/01:00am 17.6 18.7 16.5 93 0.7 SW 6 9 3 5 1016.8 1016.8 1.0
22/12:30am 18.3 19.4 16.5 89 1.1 WSW 6 9 3 5 1017.5 1017.5 0.2
22/12:00am 19.3 20.3 16.9 86 1.4 WSW 7 11 4 6 1017.5 1017.5 0.0
 
Date/Time
EST
Tmp

°C
App
Tmp
°C
Dew
Point
°C
Rel
Hum
%
Delta-T

°C
Wind Press
QNH
hPa
Press
MSL
hPa
Rain
since
9 am
mm
Dir
 
Spd
km/h
Gust
km/h
Spd
kts
Gust
kts
21/11:30pm 19.5 21.9 16.9 85 1.6 CALM 0 0 0 0 1017.3 1017.3 0.0
21/11:00pm 19.7 22.1 17.1 85 1.6 CALM 0 0 0 0 1017.3 1017.3 0.0
21/10:30pm 19.7 22.2 17.3 86 1.5 CALM 0 0 0 0 1017.4 1017.4 0.0
21/10:00pm 19.2 20.4 16.8 86 1.4 WSW 6 9 3 5 1017.6 1017.6 0.0
21/09:30pm 19.7 21.8 16.3 81 2.0 CALM 0 0 0 0 1017.5 1017.5 0.0
21/09:00pm 20.3 22.1 15.5 74 2.8 CALM 0 0 0 0 1017.7 1017.7 0.0
21/08:30pm 20.8 22.8 16.0 74 2.9 CALM 0 0 0 0 1017.5 1017.5 0.0
21/08:00pm 21.4 22.3 16.1 72 3.2 SSW 6 9 3 5 1017.6 1017.6 0.0
21/07:30pm 21.5 22.2 16.0 71 3.3 S 7 11 4 6 1017.5 1017.5 0.0
21/07:00pm 21.7 22.4 17.1 75 2.8 SSW 9 13 5 7 1017.3 1017.3 0.0
21/06:30pm 22.1 22.6 17.5 75 2.8 S 11 19 6 10 1016.9 1016.9 0.0
21/06:00pm 22.8 22.3 17.7 73 3.2 S 17 28 9 15 1016.6 1016.6 0.0
21/05:30pm 22.6 25.7 21.1 91 1.0 NNE 6 9 3 5 1015.9 1015.9 0.0
21/05:00pm 23.1 25.9 20.4 85 1.7 NNE 6 9 3 5 1015.7 1015.7 0.0
21/04:30pm 24.0 26.2 19.7 77 2.8 NE 7 11 4 6 1015.4 1015.4 0.0
21/04:00pm 24.7 27.2 19.1 71 3.6 NE 4 7 2 4 1015.4 1015.4 0.0
21/03:30pm 25.9 27.4 16.7 57 5.7 W 4 9 2 5 1015.2 1015.2 0.0
21/03:00pm 26.4 28.5 18.0 60 5.3 WSW 4 11 2 6 1015.0 1015.0 0.0
21/02:30pm 26.6 27.7 17.9 59 5.5 WNW 9 13 5 7 1015.1 1015.1 0.0
21/02:00pm 26.5 27.3 17.3 57 5.7 WSW 9 15 5 8 1015.4 1015.4 0.0
21/01:30pm 26.9 28.1 18.2 59 5.5 WSW 9 17 5 9 1015.5 1015.5 0.0

Latest Capital City Observations: Canberra | Sydney | Melbourne | Brisbane | Adelaide | Perth | Hobart | Darwin

Other Formats:

Comma delimited format used in spreadsheet applications
http://www.bom.gov.au/fwo/IDQ60901/IDQ60901.94570.axf

JavaScript Object Notation format (JSON) in row-major order
http://www.bom.gov.au/fwo/IDQ60901/IDQ60901.94570.json